createdAt,value
2019-05-10T00:03:22.602Z,11.17
2019-05-10T00:08:42.183Z,15.53
2019-05-10T00:13:48.753Z,13.87
2019-05-10T00:18:50.283Z,15.87
2019-05-10T00:23:51.765Z,14.60
2019-05-10T00:28:54.083Z,18.00
2019-05-10T00:33:55.536Z,11.00
2019-05-10T00:38:57.039Z,11.40
2019-05-10T00:43:58.500Z,15.50
2019-05-10T00:48:59.993Z,11.90
2019-05-10T00:54:02.584Z,15.87
2019-05-10T00:59:04.192Z,12.37
2019-05-10T01:04:05.614Z,11.03
2019-05-10T01:09:08.120Z,8.27
2019-05-10T01:14:09.499Z,11.43
2019-05-10T01:19:10.987Z,18.00
2019-05-10T01:24:12.426Z,21.13
2019-05-10T01:29:13.904Z,20.13
2019-05-10T01:34:16.321Z,17.87
2019-05-10T01:39:18.730Z,13.53
2019-05-10T01:44:20.187Z,15.40
2019-05-10T01:49:21.643Z,22.63
2019-05-10T01:54:23.126Z,11.70
2019-05-10T01:59:24.610Z,20.80
2019-05-10T02:04:26.077Z,20.27
2019-05-10T02:09:27.659Z,16.00
2019-05-10T02:14:29.014Z,18.87
2019-05-10T02:19:30.508Z,24.93
2019-05-10T02:24:31.984Z,17.33
2019-05-10T02:29:33.428Z,20.07
2019-05-10T02:34:34.918Z,23.07
2019-05-10T02:39:36.426Z,20.37
2019-05-10T02:44:37.895Z,21.73
2019-05-10T02:49:39.319Z,22.67
2019-05-10T02:54:42.821Z,21.87
2019-05-10T02:59:47.235Z,15.70
2019-05-10T03:04:52.479Z,17.37
2019-05-10T03:09:53.809Z,25.07
2019-05-10T03:14:58.434Z,20.47
2019-05-10T03:20:00.284Z,26.67
2019-05-10T03:25:05.373Z,42.00
2019-05-10T03:30:07.453Z,40.97
2019-05-10T03:35:10.164Z,41.77
2019-05-10T03:40:11.795Z,36.73
2019-05-10T03:45:13.357Z,36.70
2019-05-10T03:50:15.077Z,29.10
2019-05-10T03:55:17.533Z,26.27
2019-05-10T04:00:20.181Z,28.13
2019-05-10T04:05:21.731Z,28.87
2019-05-10T04:10:23.171Z,30.10
2019-05-10T04:15:25.574Z,34.37
2019-05-10T04:20:27.091Z,34.97
2019-05-10T04:25:28.539Z,30.27
2019-05-10T04:30:31.893Z,35.03
2019-05-10T04:35:35.524Z,32.73
2019-05-10T04:40:42.838Z,28.00
2019-05-10T04:45:46.420Z,27.87
2019-05-10T04:50:50.070Z,25.33
2019-05-10T04:55:51.485Z,22.60
2019-05-10T05:00:53.019Z,23.03
2019-05-10T05:05:55.393Z,23.20
2019-05-10T05:10:57.786Z,19.27
2019-05-10T05:15:59.246Z,20.43
2019-05-10T05:21:00.901Z,19.77
2019-05-10T05:26:05.503Z,20.87
2019-05-10T05:31:10.635Z,25.90
2019-05-10T05:36:12.218Z,23.23
2019-05-10T05:41:19.456Z,23.57
2019-05-10T05:46:23.030Z,17.70
2019-05-10T05:51:25.514Z,18.67
2019-05-10T05:56:26.893Z,20.33
2019-05-10T06:01:34.215Z,23.57
2019-05-10T06:06:38.754Z,28.43
2019-05-10T06:11:40.038Z,38.73
2019-05-10T06:16:44.996Z,34.50
2019-05-10T06:21:46.735Z,35.07
2019-05-10T06:26:49.253Z,27.93
2019-05-10T06:31:50.540Z,36.60
2019-05-10T06:36:51.899Z,37.33
2019-05-10T06:41:56.136Z,34.83
2019-05-10T06:52:10.171Z,38.20
2019-05-10T06:57:17.547Z,28.77
2019-05-10T07:02:20.049Z,33.20
2019-05-10T07:07:33.121Z,29.97
2019-05-10T07:12:22.530Z,32.67
2019-05-10T07:17:23.801Z,31.17
2019-05-10T07:22:26.856Z,33.87
2019-05-10T07:27:28.541Z,30.93
2019-05-10T07:32:30.052Z,23.63
2019-05-10T07:37:31.490Z,27.90
2019-05-10T07:42:32.961Z,25.67
2019-05-10T07:47:34.239Z,32.03
2019-05-10T07:52:43.168Z,24.87
2019-05-10T07:57:40.237Z,21.27
2019-05-10T08:02:44.360Z,17.90
2019-05-10T08:07:44.918Z,11.13
2019-05-10T08:12:52.370Z,17.30
2019-05-10T08:17:53.670Z,13.50
2019-05-10T08:22:55.181Z,11.47
2019-05-10T08:27:56.651Z,15.73
2019-05-10T08:33:00.193Z,15.20
2019-05-10T08:38:02.342Z,13.27
2019-05-10T08:43:15.613Z,13.63
2019-05-10T08:48:14.150Z,16.00
2019-05-10T08:53:16.664Z,13.07
2019-05-10T08:58:23.860Z,11.47
2019-05-10T09:03:22.717Z,13.97
2019-05-10T09:08:31.528Z,14.57
2019-05-10T09:13:54.637Z,11.30
2019-05-10T09:18:56.434Z,12.87
2019-05-10T09:24:04.888Z,9.53
2019-05-10T09:29:03.330Z,3.37
2019-05-10T09:34:06.786Z,4.10
2019-05-10T09:39:17.658Z,6.70
2019-05-10T09:44:15.979Z,8.00
2019-05-10T09:49:18.672Z,7.33
2019-05-10T09:54:23.376Z,6.23
2019-05-10T09:59:23.402Z,9.00
2019-05-10T10:04:28.286Z,7.37
2019-05-10T10:09:42.448Z,8.57
2019-05-10T10:14:47.097Z,7.10
2019-05-10T10:19:51.178Z,9.07
2019-05-10T10:25:00.521Z,11.40
2019-05-10T10:29:58.896Z,10.17
2019-05-10T10:35:07.893Z,11.70
2019-05-10T10:40:09.949Z,12.43
2019-05-10T10:45:18.595Z,9.03
2019-05-10T10:50:20.072Z,9.43
2019-05-10T10:55:30.523Z,7.80
2019-05-10T11:00:33.686Z,10.43
2019-05-10T11:05:35.233Z,9.60
2019-05-10T11:10:48.011Z,11.33
2019-05-10T11:16:09.977Z,14.50
2019-05-10T11:21:05.942Z,13.57
2019-05-10T11:26:07.410Z,10.70
2019-05-10T11:31:21.441Z,12.57
2019-05-10T11:36:31.085Z,9.57
2019-05-10T11:41:35.205Z,10.83
2019-05-10T11:46:50.640Z,10.37
2019-05-10T11:51:58.553Z,9.73
2019-05-10T12:02:10.335Z,9.60
2019-05-10T12:07:16.418Z,12.67
2019-05-10T12:12:29.703Z,15.63
2019-05-10T12:17:27.362Z,15.33
2019-05-10T12:22:37.579Z,13.47
2019-05-10T12:26:16.068Z,11.80
2019-05-10T12:27:44.399Z,13.70
2019-05-10T12:32:42.041Z,13.90
2019-05-10T12:37:49.471Z,13.23
2019-05-10T12:43:07.176Z,12.27
2019-05-10T12:48:10.618Z,11.83
2019-05-10T12:53:18.341Z,14.47
2019-05-10T12:58:45.212Z,15.33
2019-05-10T13:03:46.615Z,14.93
2019-05-10T13:09:08.282Z,13.80
2019-05-10T13:14:14.760Z,12.47
2019-05-10T13:19:20.265Z,13.27
2019-05-10T13:24:22.612Z,12.40
2019-05-10T13:29:25.935Z,13.20
2019-05-10T13:34:27.447Z,10.70
2019-05-10T13:39:41.169Z,11.07
2019-05-10T13:44:44.657Z,10.83
2019-05-10T13:49:49.547Z,12.17
2019-05-10T13:54:57.969Z,10.10
2019-05-10T14:00:07.305Z,10.27
2019-05-10T14:05:39.779Z,11.40
2019-05-10T14:11:20.307Z,10.33
2019-05-10T14:16:33.717Z,10.40
2019-05-10T14:21:37.340Z,10.70
2019-05-10T14:26:38.826Z,10.37
2019-05-10T14:31:49.194Z,12.23
2019-05-10T14:36:50.631Z,14.27
2019-05-10T14:41:55.314Z,11.37
2019-05-10T14:46:56.664Z,11.77
2019-05-10T14:52:32.747Z,12.10
2019-05-10T14:57:40.175Z,9.27
2019-05-10T15:02:50.839Z,9.63
2019-05-10T15:08:13.658Z,10.80
2019-05-10T15:13:25.901Z,10.80
2019-05-10T15:18:23.508Z,11.17
2019-05-10T15:23:25.901Z,9.67
2019-05-10T15:28:34.574Z,12.57
2019-05-10T15:33:34.815Z,10.50
2019-05-10T15:38:52.260Z,14.07
2019-05-10T15:43:55.009Z,11.00
2019-05-10T15:49:13.437Z,13.00
2019-05-10T15:54:13.118Z,10.97
2019-05-10T15:59:22.581Z,11.47
2019-05-10T16:04:27.121Z,13.03
2019-05-10T16:09:50.007Z,12.57
2019-05-10T16:14:49.178Z,15.90
2019-05-10T16:19:58.906Z,13.97
2019-05-10T16:25:00.872Z,18.83
2019-05-10T16:30:00.583Z,13.53
2019-05-10T16:35:12.408Z,14.60
2019-05-10T16:40:16.939Z,13.47
2019-05-10T16:45:29.249Z,13.73
2019-05-10T16:50:33.959Z,16.67
2019-05-10T16:55:57.243Z,19.17
2019-05-10T17:00:59.804Z,16.13
2019-05-10T17:06:04.219Z,17.60
2019-05-10T17:11:25.300Z,15.47
2019-05-10T17:16:26.579Z,16.63
2019-05-10T17:21:33.918Z,16.70
2019-05-10T17:26:38.468Z,14.43
2019-05-10T17:31:45.572Z,15.27
2019-05-10T17:37:08.187Z,13.70
2019-05-10T17:42:09.559Z,13.13
2019-05-10T17:47:10.867Z,13.83
2019-05-10T17:52:12.160Z,12.87
2019-05-10T17:57:16.593Z,15.20
2019-05-10T18:02:28.692Z,13.17
2019-05-10T18:07:33.227Z,15.40
2019-05-10T18:12:45.050Z,21.63
2019-05-10T18:18:07.856Z,13.57
2019-05-10T18:23:21.463Z,14.17
2019-05-10T18:28:22.419Z,13.17
2019-05-10T18:33:32.904Z,13.87
2019-05-10T18:38:40.959Z,15.37
2019-05-10T18:43:53.233Z,15.70
2019-05-10T18:48:57.788Z,14.63
2019-05-10T18:54:08.162Z,17.17
2019-05-10T18:59:09.650Z,18.10
2019-05-10T19:04:32.768Z,18.53
2019-05-10T19:09:37.244Z,16.23
2019-05-10T19:14:43.023Z,17.57
2019-05-10T19:19:53.288Z,22.27
2019-05-10T19:25:10.134Z,16.43
2019-05-10T19:30:19.911Z,22.27
2019-05-10T19:35:29.976Z,20.77
2019-05-10T19:40:32.346Z,20.23
2019-05-10T19:45:35.668Z,22.80
2019-05-10T19:50:40.198Z,27.23
2019-05-10T19:55:41.675Z,24.87
2019-05-10T20:00:44.172Z,28.60
2019-05-10T20:05:58.436Z,24.47
2019-05-10T20:10:59.929Z,23.77
2019-05-10T20:16:07.098Z,21.53
2019-05-10T20:21:17.658Z,27.40
2019-05-10T20:26:21.259Z,25.90
2019-05-10T20:31:22.779Z,24.60
2019-05-10T20:36:26.319Z,26.53
2019-05-10T20:41:27.773Z,23.27
2019-05-10T20:46:29.285Z,25.73
2019-05-10T20:51:31.672Z,30.40
2019-05-10T20:56:33.122Z,23.37
2019-05-10T21:01:34.719Z,21.90
2019-05-10T21:06:36.114Z,24.97
2019-05-10T21:11:37.552Z,20.07
2019-05-10T21:16:38.863Z,24.77
2019-05-10T21:21:46.112Z,20.87
2019-05-10T21:26:48.444Z,22.80
2019-05-10T21:31:49.913Z,23.27
2019-05-10T21:36:51.375Z,26.80
2019-05-10T21:41:54.088Z,25.13
2019-05-10T21:47:01.399Z,26.40
2019-05-10T21:52:03.892Z,26.33
2019-05-10T21:57:16.322Z,28.83
2019-05-10T22:02:21.502Z,27.57
2019-05-10T22:07:23.159Z,33.57
2019-05-10T22:12:25.115Z,28.30
2019-05-10T22:17:30.400Z,26.80
2019-05-10T22:22:39.942Z,29.53
2019-05-10T22:27:44.463Z,29.97
2019-05-10T22:32:53.939Z,26.33
2019-05-10T22:37:55.424Z,26.70
2019-05-10T22:42:56.872Z,28.83
2019-05-10T22:47:59.278Z,27.77
2019-05-10T22:53:00.781Z,26.33
2019-05-10T22:58:02.341Z,28.40
2019-05-10T23:03:04.965Z,26.27
2019-05-10T23:08:09.461Z,23.00
2019-05-10T23:13:10.941Z,26.40
2019-05-10T23:18:18.252Z,26.90
2019-05-10T23:23:21.072Z,29.87
2019-05-10T23:28:22.737Z,27.43
2019-05-10T23:33:24.224Z,21.83
2019-05-10T23:38:26.619Z,21.70
2019-05-10T23:43:29.003Z,24.07
2019-05-10T23:48:33.543Z,23.93
2019-05-10T23:53:35.013Z,24.33
2019-05-10T23:58:36.543Z,26.80
